KL   EN   DA


ASIAQ
Weather Now GREENLAND SURVEY
Sorting:
Along the coast
Alphabetical
Location Updated [WGT/WGST] Temperature [°C] Wind [m/s] Air pressure [hPa] Relative humidity [%] Precipitation [mm]
PresentWind chillSpeedMax
Qaanaaq21.01 21:00-14,6-23,45,3 ⇐6,1993500,0
Kitsissut21.01 21:00-14,9-26,79,8 ⇖13,999366n/a
Kitsissorsuit21.01 21:00-17,4-27,35,7 ⇑7,299379n/a
Upernavik21.01 21:00-18,2-26,94,3 ⇒5,8982880,0
Qaarsut21.01 21:00-13,5-19,73,0 ⇒5,4987730,0
Nuussuaq21.01 21:00-14,0-22,14,6 ⇓7,299568n/a
Qeqertarsuaq21.01 21:00-10,9-16,73,0 ⇙6,3996690,0
Ilulissat21.01 21:00-12,2-21,87,3 ⇖10,5995780,1
Qasigiannguit21.01 21:00-12,3-20,14,7 ⇑6,4995610,0
Aasiaat21.01 21:00-11,2-19,76,1 ⇑8,3995820,1
Attu21.01 21:00-10,7-20,38,2 ⇗10,899768n/a
Kangerlussuaq21.01 21:00-15,9-23,63,8 ⇙4,899267n/a
Sisimiut21.01 21:00-10,9-20,37,8 ⇗10,2998760,0
Maniitsoq21.01 21:00-9,6-17,96,5 ⇗8,7996640,1
Sioralik21.01 21:00-9,0-16,75,7 ⇒7,799967n/a
Kapisillit21.01 21:00-12,7-16,01,4 ⇐4,0992630,0
Nuuk Airportn/an/an/an/an/an/an/an/a
Nuuk Skibakke/Sisorarfiit21.01 21:00-13,2-16,31,3 ⇐2,195687n/a
Nuuk City21.01 21:00n/a-15,52,8 ⇐3,7n/an/an/a
Ukiivik21.01 21:00-8,5-13,83,1 ⇙4,699655n/a
Paamiut21.01 21:00-8,4-11,11,4 ⇐1,9993520,0
Narsarsuaq21.01 21:00-11,9-20,66,0 ⇙8,1996460,0
Narsaq21.01 21:00-9,7n/a0,8 ⇙3,199559n/a
Qaqortoq21.01 21:00-8,1-12,02,1 ⇐4,4997720,0
Nanortalik21.01 21:00-6,0n/a1,2 ⇒3,0998620,0
Angisoq21.01 21:00-5,9-11,64,1 ⇗5,199789n/a
Prins Christian Sund21.01 21:00-6,1-11,94,1 ⇗5,798650n/a
Ikermit21.01 21:00-11,1-27,230,4 ⇘40,297459n/a
Kulusuk21.01 21:00-9,2-17,66,8 ⇘8,2973670,0
Tasiilaq21.01 21:00-10,4-21,210,9 ⇒16,097269n/a
Aputiteeq21.01 21:00-6,8-15,58,8 ⇓16,097356n/a
Ittoqqortoormiit21.01 21:00-3,3-10,37,3 ⇒12,195645n/a
Nerlerit Inaat21.01 21:00-4,7-9,23,1 ⇒7,796341n/a
Daneborg21.01 21:00-18,5-26,53,6 ⇐4,696078n/a
Danmarkshavn21.01 21:00-19,1-31,17,9 ⇘10,1955770,2
Henrik Krøyer Holme21.01 21:00-9,8-22,919,0 ⇙25,296390n/a
Station Nord21.01 21:00-26,8n/an/an/a97477n/a
Kap Morris Jesup21.01 21:00-33,0n/an/an/a99671n/a

Advanced version
Data source - Operated by - Disclaimer